sensor_id;sensor_type;location;lat;lon;timestamp;P1;durP1;ratioP1;P2;durP2;ratioP2
17259;SDS011;8746;49.230;9.220;2023-05-07T00:01:25;2.80;;;2.50;;
17259;SDS011;8746;49.230;9.220;2023-05-07T00:03:50;3.37;;;2.70;;
17259;SDS011;8746;49.230;9.220;2023-05-07T00:06:16;3.73;;;2.30;;
17259;SDS011;8746;49.230;9.220;2023-05-07T00:08:42;2.87;;;2.60;;
17259;SDS011;8746;49.230;9.220;2023-05-07T00:11:07;2.60;;;2.40;;
17259;SDS011;8746;49.230;9.220;2023-05-07T00:13:32;3.97;;;2.67;;
17259;SDS011;8746;49.230;9.220;2023-05-07T00:16:00;4.13;;;2.43;;
17259;SDS011;8746;49.230;9.220;2023-05-07T00:18:27;3.63;;;2.67;;
17259;SDS011;8746;49.230;9.220;2023-05-07T00:20:53;2.80;;;2.60;;
17259;SDS011;8746;49.230;9.220;2023-05-07T00:23:18;3.83;;;2.70;;
17259;SDS011;8746;49.230;9.220;2023-05-07T00:25:43;2.87;;;2.67;;
17259;SDS011;8746;49.230;9.220;2023-05-07T00:28:09;3.27;;;2.60;;
17259;SDS011;8746;49.230;9.220;2023-05-07T00:30:34;3.43;;;2.70;;
17259;SDS011;8746;49.230;9.220;2023-05-07T00:32:59;3.90;;;2.80;;
17259;SDS011;8746;49.230;9.220;2023-05-07T00:35:25;2.80;;;2.60;;
17259;SDS011;8746;49.230;9.220;2023-05-07T00:37:50;5.23;;;2.77;;
17259;SDS011;8746;49.230;9.220;2023-05-07T00:40:15;3.50;;;2.90;;
17259;SDS011;8746;49.230;9.220;2023-05-07T00:42:41;3.97;;;3.10;;
17259;SDS011;8746;49.230;9.220;2023-05-07T00:45:06;4.47;;;3.27;;
17259;SDS011;8746;49.230;9.220;2023-05-07T00:47:32;3.10;;;2.60;;
17259;SDS011;8746;49.230;9.220;2023-05-07T00:49:58;2.90;;;2.70;;
17259;SDS011;8746;49.230;9.220;2023-05-07T00:52:24;3.03;;;2.73;;
17259;SDS011;8746;49.230;9.220;2023-05-07T00:54:50;2.57;;;2.37;;
17259;SDS011;8746;49.230;9.220;2023-05-07T00:57:16;2.73;;;2.53;;
17259;SDS011;8746;49.230;9.220;2023-05-07T00:59:42;2.70;;;2.50;;
17259;SDS011;8746;49.230;9.220;2023-05-07T01:02:07;2.73;;;2.53;;
17259;SDS011;8746;49.230;9.220;2023-05-07T01:04:33;4.73;;;2.47;;
17259;SDS011;8746;49.230;9.220;2023-05-07T01:06:58;3.30;;;2.53;;
17259;SDS011;8746;49.230;9.220;2023-05-07T01:09:25;2.70;;;2.50;;
17259;SDS011;8746;49.230;9.220;2023-05-07T01:11:51;2.80;;;2.60;;
17259;SDS011;8746;49.230;9.220;2023-05-07T01:14:17;2.80;;;2.60;;
17259;SDS011;8746;49.230;9.220;2023-05-07T01:16:44;2.60;;;2.47;;
17259;SDS011;8746;49.230;9.220;2023-05-07T01:19:09;3.50;;;2.87;;
17259;SDS011;8746;49.230;9.220;2023-05-07T01:21:38;4.77;;;2.83;;
17259;SDS011;8746;49.230;9.220;2023-05-07T01:24:10;2.97;;;2.77;;
17259;SDS011;8746;49.230;9.220;2023-05-07T01:26:36;3.00;;;2.70;;
17259;SDS011;8746;49.230;9.220;2023-05-07T01:29:02;2.60;;;2.43;;
17259;SDS011;8746;49.230;9.220;2023-05-07T01:31:27;2.70;;;2.50;;
17259;SDS011;8746;49.230;9.220;2023-05-07T01:33:53;2.70;;;2.50;;
17259;SDS011;8746;49.230;9.220;2023-05-07T01:36:20;3.33;;;2.77;;
17259;SDS011;8746;49.230;9.220;2023-05-07T01:38:50;3.10;;;2.80;;
17259;SDS011;8746;49.230;9.220;2023-05-07T01:41:17;5.10;;;2.67;;
17259;SDS011;8746;49.230;9.220;2023-05-07T01:43:44;4.40;;;2.90;;
17259;SDS011;8746;49.230;9.220;2023-05-07T01:46:11;3.40;;;2.80;;
17259;SDS011;8746;49.230;9.220;2023-05-07T01:48:38;4.43;;;2.70;;
17259;SDS011;8746;49.230;9.220;2023-05-07T01:51:04;3.27;;;2.70;;
17259;SDS011;8746;49.230;9.220;2023-05-07T01:53:38;3.40;;;2.60;;
17259;SDS011;8746;49.230;9.220;2023-05-07T01:56:05;2.73;;;2.53;;
17259;SDS011;8746;49.230;9.220;2023-05-07T01:58:31;3.10;;;2.90;;
17259;SDS011;8746;49.230;9.220;2023-05-07T02:00:57;2.73;;;2.53;;
17259;SDS011;8746;49.230;9.220;2023-05-07T02:03:22;2.80;;;2.60;;
17259;SDS011;8746;49.230;9.220;2023-05-07T02:05:47;3.17;;;2.80;;
17259;SDS011;8746;49.230;9.220;2023-05-07T02:08:13;2.57;;;2.37;;
17259;SDS011;8746;49.230;9.220;2023-05-07T02:10:38;3.30;;;3.00;;
17259;SDS011;8746;49.230;9.220;2023-05-07T02:13:04;3.43;;;2.80;;
17259;SDS011;8746;49.230;9.220;2023-05-07T02:15:30;4.03;;;3.00;;
17259;SDS011;8746;49.230;9.220;2023-05-07T02:18:13;3.37;;;3.10;;
17259;SDS011;8746;49.230;9.220;2023-05-07T02:20:38;3.10;;;2.90;;
17259;SDS011;8746;49.230;9.220;2023-05-07T02:23:04;3.87;;;2.90;;
17259;SDS011;8746;49.230;9.220;2023-05-07T02:25:29;3.30;;;2.93;;
17259;SDS011;8746;49.230;9.220;2023-05-07T02:27:55;4.00;;;2.93;;
17259;SDS011;8746;49.230;9.220;2023-05-07T02:30:20;3.00;;;2.80;;
17259;SDS011;8746;49.230;9.220;2023-05-07T02:32:46;3.00;;;2.80;;
17259;SDS011;8746;49.230;9.220;2023-05-07T02:35:11;3.17;;;2.63;;
17259;SDS011;8746;49.230;9.220;2023-05-07T02:37:36;3.80;;;3.20;;
17259;SDS011;8746;49.230;9.220;2023-05-07T02:40:02;3.27;;;3.07;;
17259;SDS011;8746;49.230;9.220;2023-05-07T02:42:29;4.17;;;3.03;;
17259;SDS011;8746;49.230;9.220;2023-05-07T02:44:54;5.03;;;2.90;;
17259;SDS011;8746;49.230;9.220;2023-05-07T02:47:19;4.10;;;2.97;;
17259;SDS011;8746;49.230;9.220;2023-05-07T02:49:45;3.50;;;3.20;;
17259;SDS011;8746;49.230;9.220;2023-05-07T02:52:10;3.20;;;2.97;;
17259;SDS011;8746;49.230;9.220;2023-05-07T02:54:35;3.27;;;3.00;;
17259;SDS011;8746;49.230;9.220;2023-05-07T02:57:01;3.40;;;3.07;;
17259;SDS011;8746;49.230;9.220;2023-05-07T02:59:27;3.37;;;3.07;;
17259;SDS011;8746;49.230;9.220;2023-05-07T03:01:52;3.67;;;3.30;;
17259;SDS011;8746;49.230;9.220;2023-05-07T03:04:17;4.07;;;3.10;;
17259;SDS011;8746;49.230;9.220;2023-05-07T03:06:43;3.30;;;3.00;;
17259;SDS011;8746;49.230;9.220;2023-05-07T03:09:08;4.07;;;3.20;;
17259;SDS011;8746;49.230;9.220;2023-05-07T03:11:33;3.03;;;2.83;;
17259;SDS011;8746;49.230;9.220;2023-05-07T03:14:00;3.30;;;3.00;;
17259;SDS011;8746;49.230;9.220;2023-05-07T03:16:26;3.40;;;3.20;;
17259;SDS011;8746;49.230;9.220;2023-05-07T03:18:51;4.07;;;3.13;;
17259;SDS011;8746;49.230;9.220;2023-05-07T03:21:17;3.13;;;2.83;;
17259;SDS011;8746;49.230;9.220;2023-05-07T03:23:42;3.60;;;3.33;;
17259;SDS011;8746;49.230;9.220;2023-05-07T03:26:08;4.00;;;3.57;;
17259;SDS011;8746;49.230;9.220;2023-05-07T03:28:33;3.90;;;3.47;;
17259;SDS011;8746;49.230;9.220;2023-05-07T03:30:58;3.70;;;3.40;;
17259;SDS011;8746;49.230;9.220;2023-05-07T03:33:24;6.07;;;3.60;;
17259;SDS011;8746;49.230;9.220;2023-05-07T03:35:49;3.53;;;3.30;;
17259;SDS011;8746;49.230;9.220;2023-05-07T03:38:14;3.50;;;3.20;;
17259;SDS011;8746;49.230;9.220;2023-05-07T03:40:40;3.20;;;2.90;;
17259;SDS011;8746;49.230;9.220;2023-05-07T03:43:05;3.47;;;3.17;;
17259;SDS011;8746;49.230;9.220;2023-05-07T03:45:31;3.10;;;2.90;;
17259;SDS011;8746;49.230;9.220;2023-05-07T03:47:56;2.90;;;2.70;;
17259;SDS011;8746;49.230;9.220;2023-05-07T03:50:21;3.50;;;3.20;;
17259;SDS011;8746;49.230;9.220;2023-05-07T03:52:47;3.30;;;3.00;;
17259;SDS011;8746;49.230;9.220;2023-05-07T03:55:12;2.97;;;2.73;;
17259;SDS011;8746;49.230;9.220;2023-05-07T03:57:37;3.57;;;3.20;;
17259;SDS011;8746;49.230;9.220;2023-05-07T04:00:03;2.90;;;2.70;;
17259;SDS011;8746;49.230;9.220;2023-05-07T04:02:29;3.70;;;3.30;;
17259;SDS011;8746;49.230;9.220;2023-05-07T04:04:55;3.47;;;2.93;;
17259;SDS011;8746;49.230;9.220;2023-05-07T04:07:20;5.03;;;3.23;;
17259;SDS011;8746;49.230;9.220;2023-05-07T04:09:45;5.77;;;3.13;;
17259;SDS011;8746;49.230;9.220;2023-05-07T04:12:11;3.70;;;3.00;;
17259;SDS011;8746;49.230;9.220;2023-05-07T04:14:36;3.33;;;3.03;;
17259;SDS011;8746;49.230;9.220;2023-05-07T04:17:01;4.07;;;3.10;;
17259;SDS011;8746;49.230;9.220;2023-05-07T04:19:27;3.30;;;3.00;;
17259;SDS011;8746;49.230;9.220;2023-05-07T04:21:53;3.53;;;3.00;;
17259;SDS011;8746;49.230;9.220;2023-05-07T04:24:18;2.97;;;2.77;;
17259;SDS011;8746;49.230;9.220;2023-05-07T04:26:44;6.83;;;3.30;;
17259;SDS011;8746;49.230;9.220;2023-05-07T04:29:09;3.27;;;2.97;;
17259;SDS011;8746;49.230;9.220;2023-05-07T04:31:34;3.30;;;3.00;;
17259;SDS011;8746;49.230;9.220;2023-05-07T04:34:00;3.10;;;2.90;;
17259;SDS011;8746;49.230;9.220;2023-05-07T04:36:25;2.67;;;2.53;;
17259;SDS011;8746;49.230;9.220;2023-05-07T04:38:52;3.00;;;2.80;;
17259;SDS011;8746;49.230;9.220;2023-05-07T04:41:18;3.00;;;2.80;;
17259;SDS011;8746;49.230;9.220;2023-05-07T04:43:44;3.57;;;2.77;;
17259;SDS011;8746;49.230;9.220;2023-05-07T04:46:09;3.00;;;2.80;;
17259;SDS011;8746;49.230;9.220;2023-05-07T04:48:35;3.33;;;3.00;;
17259;SDS011;8746;49.230;9.220;2023-05-07T04:51:00;5.13;;;3.20;;
17259;SDS011;8746;49.230;9.220;2023-05-07T04:53:25;3.30;;;3.00;;
17259;SDS011;8746;49.230;9.220;2023-05-07T04:55:57;3.10;;;2.90;;
17259;SDS011;8746;49.230;9.220;2023-05-07T04:58:23;3.33;;;3.10;;
17259;SDS011;8746;49.230;9.220;2023-05-07T05:00:48;3.60;;;3.10;;
17259;SDS011;8746;49.230;9.220;2023-05-07T05:03:14;4.07;;;3.67;;
17259;SDS011;8746;49.230;9.220;2023-05-07T05:05:40;3.57;;;3.30;;
17259;SDS011;8746;49.230;9.220;2023-05-07T05:08:05;3.50;;;3.20;;
17259;SDS011;8746;49.230;9.220;2023-05-07T05:10:30;4.00;;;3.17;;
17259;SDS011;8746;49.230;9.220;2023-05-07T05:12:56;4.00;;;3.13;;
17259;SDS011;8746;49.230;9.220;2023-05-07T05:15:21;3.53;;;3.10;;
17259;SDS011;8746;49.230;9.220;2023-05-07T05:17:47;4.17;;;2.90;;
17259;SDS011;8746;49.230;9.220;2023-05-07T05:20:12;3.60;;;3.30;;
17259;SDS011;8746;49.230;9.220;2023-05-07T05:22:38;3.20;;;2.97;;
17259;SDS011;8746;49.230;9.220;2023-05-07T05:25:03;3.50;;;3.30;;
17259;SDS011;8746;49.230;9.220;2023-05-07T05:27:29;3.27;;;3.03;;
17259;SDS011;8746;49.230;9.220;2023-05-07T05:29:55;3.40;;;3.03;;
17259;SDS011;8746;49.230;9.220;2023-05-07T05:32:20;3.50;;;3.20;;
17259;SDS011;8746;49.230;9.220;2023-05-07T05:34:45;3.60;;;3.30;;
17259;SDS011;8746;49.230;9.220;2023-05-07T05:37:11;3.70;;;3.40;;
17259;SDS011;8746;49.230;9.220;2023-05-07T05:39:36;3.70;;;3.40;;
17259;SDS011;8746;49.230;9.220;2023-05-07T05:42:02;3.77;;;3.40;;
17259;SDS011;8746;49.230;9.220;2023-05-07T05:44:27;3.87;;;3.60;;
17259;SDS011;8746;49.230;9.220;2023-05-07T05:46:52;4.07;;;3.40;;
17259;SDS011;8746;49.230;9.220;2023-05-07T05:49:20;4.40;;;4.00;;
17259;SDS011;8746;49.230;9.220;2023-05-07T05:51:46;4.10;;;3.70;;
17259;SDS011;8746;49.230;9.220;2023-05-07T05:54:11;4.20;;;3.83;;
17259;SDS011;8746;49.230;9.220;2023-05-07T05:56:37;3.90;;;3.50;;
17259;SDS011;8746;49.230;9.220;2023-05-07T05:59:02;3.50;;;3.20;;
17259;SDS011;8746;49.230;9.220;2023-05-07T06:01:28;3.20;;;3.00;;
17259;SDS011;8746;49.230;9.220;2023-05-07T06:03:53;3.67;;;3.37;;
17259;SDS011;8746;49.230;9.220;2023-05-07T06:06:18;4.23;;;3.20;;
17259;SDS011;8746;49.230;9.220;2023-05-07T06:08:44;3.40;;;3.10;;
17259;SDS011;8746;49.230;9.220;2023-05-07T06:11:09;3.40;;;3.10;;
17259;SDS011;8746;49.230;9.220;2023-05-07T06:13:35;3.53;;;3.23;;
17259;SDS011;8746;49.230;9.220;2023-05-07T06:16:00;3.13;;;2.90;;
17259;SDS011;8746;49.230;9.220;2023-05-07T06:18:25;3.93;;;3.30;;
17259;SDS011;8746;49.230;9.220;2023-05-07T06:20:51;3.70;;;3.40;;
17259;SDS011;8746;49.230;9.220;2023-05-07T06:23:17;3.20;;;3.00;;
17259;SDS011;8746;49.230;9.220;2023-05-07T06:25:43;3.10;;;2.80;;
17259;SDS011;8746;49.230;9.220;2023-05-07T06:28:13;3.20;;;2.90;;
17259;SDS011;8746;49.230;9.220;2023-05-07T06:30:38;4.47;;;3.20;;
17259;SDS011;8746;49.230;9.220;2023-05-07T06:33:05;3.67;;;3.07;;
17259;SDS011;8746;49.230;9.220;2023-05-07T06:35:30;3.90;;;3.13;;
17259;SDS011;8746;49.230;9.220;2023-05-07T06:37:55;3.33;;;3.10;;
17259;SDS011;8746;49.230;9.220;2023-05-07T06:40:21;3.63;;;3.33;;
17259;SDS011;8746;49.230;9.220;2023-05-07T06:42:46;3.30;;;3.00;;
17259;SDS011;8746;49.230;9.220;2023-05-07T06:45:11;4.27;;;3.40;;
17259;SDS011;8746;49.230;9.220;2023-05-07T06:47:37;4.03;;;3.40;;
17259;SDS011;8746;49.230;9.220;2023-05-07T06:50:02;3.50;;;3.30;;
17259;SDS011;8746;49.230;9.220;2023-05-07T06:52:27;3.87;;;3.57;;
17259;SDS011;8746;49.230;9.220;2023-05-07T06:54:53;3.77;;;3.10;;
17259;SDS011;8746;49.230;9.220;2023-05-07T06:57:18;3.20;;;2.90;;
17259;SDS011;8746;49.230;9.220;2023-05-07T06:59:43;3.57;;;3.23;;
17259;SDS011;8746;49.230;9.220;2023-05-07T07:02:09;3.60;;;3.30;;
17259;SDS011;8746;49.230;9.220;2023-05-07T07:04:34;3.47;;;3.13;;
17259;SDS011;8746;49.230;9.220;2023-05-07T07:06:59;3.40;;;3.07;;
17259;SDS011;8746;49.230;9.220;2023-05-07T07:09:25;3.10;;;2.90;;
17259;SDS011;8746;49.230;9.220;2023-05-07T07:11:50;3.47;;;2.90;;
17259;SDS011;8746;49.230;9.220;2023-05-07T07:14:15;3.07;;;2.87;;
17259;SDS011;8746;49.230;9.220;2023-05-07T07:16:41;3.00;;;2.67;;
17259;SDS011;8746;49.230;9.220;2023-05-07T07:19:06;3.07;;;2.77;;
17259;SDS011;8746;49.230;9.220;2023-05-07T07:21:32;3.47;;;3.20;;
17259;SDS011;8746;49.230;9.220;2023-05-07T07:23:57;3.30;;;3.00;;
17259;SDS011;8746;49.230;9.220;2023-05-07T07:26:22;3.03;;;2.83;;
17259;SDS011;8746;49.230;9.220;2023-05-07T07:28:48;3.20;;;2.90;;
17259;SDS011;8746;49.230;9.220;2023-05-07T07:31:13;3.10;;;2.80;;
17259;SDS011;8746;49.230;9.220;2023-05-07T07:33:39;3.00;;;2.80;;
17259;SDS011;8746;49.230;9.220;2023-05-07T07:36:05;3.92;;;3.20;;
17259;SDS011;8746;49.230;9.220;2023-05-07T07:38:31;3.10;;;2.90;;
17259;SDS011;8746;49.230;9.220;2023-05-07T07:40:56;3.03;;;2.80;;
17259;SDS011;8746;49.230;9.220;2023-05-07T07:43:22;2.57;;;2.43;;
17259;SDS011;8746;49.230;9.220;2023-05-07T07:45:47;2.90;;;2.60;;
17259;SDS011;8746;49.230;9.220;2023-05-07T07:48:12;2.90;;;2.70;;
17259;SDS011;8746;49.230;9.220;2023-05-07T07:50:38;2.90;;;2.70;;
17259;SDS011;8746;49.230;9.220;2023-05-07T07:53:03;3.30;;;2.55;;
17259;SDS011;8746;49.230;9.220;2023-05-07T07:55:28;3.45;;;2.90;;
17259;SDS011;8746;49.230;9.220;2023-05-07T07:57:56;2.92;;;2.70;;
17259;SDS011;8746;49.230;9.220;2023-05-07T08:00:21;2.57;;;2.47;;
17259;SDS011;8746;49.230;9.220;2023-05-07T08:02:46;2.80;;;2.60;;
17259;SDS011;8746;49.230;9.220;2023-05-07T08:05:12;3.40;;;2.72;;
17259;SDS011;8746;49.230;9.220;2023-05-07T08:07:37;2.40;;;2.30;;
17259;SDS011;8746;49.230;9.220;2023-05-07T08:10:03;3.25;;;2.53;;
17259;SDS011;8746;49.230;9.220;2023-05-07T08:12:29;2.55;;;2.35;;
17259;SDS011;8746;49.230;9.220;2023-05-07T08:14:54;2.72;;;2.50;;
17259;SDS011;8746;49.230;9.220;2023-05-07T08:17:19;2.90;;;2.70;;
17259;SDS011;8746;49.230;9.220;2023-05-07T08:19:47;2.95;;;2.42;;
17259;SDS011;8746;49.230;9.220;2023-05-07T08:22:13;2.75;;;2.55;;
17259;SDS011;8746;49.230;9.220;2023-05-07T08:24:39;2.85;;;2.53;;
17259;SDS011;8746;49.230;9.220;2023-05-07T08:27:04;3.40;;;2.55;;
17259;SDS011;8746;49.230;9.220;2023-05-07T08:29:30;2.85;;;2.40;;
17259;SDS011;8746;49.230;9.220;2023-05-07T08:31:55;2.63;;;2.50;;
17259;SDS011;8746;49.230;9.220;2023-05-07T08:34:21;2.22;;;2.13;;
17259;SDS011;8746;49.230;9.220;2023-05-07T08:36:47;3.30;;;2.65;;
17259;SDS011;8746;49.230;9.220;2023-05-07T08:39:13;2.40;;;2.20;;
17259;SDS011;8746;49.230;9.220;2023-05-07T08:41:41;2.00;;;1.90;;
17259;SDS011;8746;49.230;9.220;2023-05-07T08:44:11;2.60;;;2.40;;
17259;SDS011;8746;49.230;9.220;2023-05-07T08:46:39;2.97;;;2.42;;
17259;SDS011;8746;49.230;9.220;2023-05-07T08:49:05;2.90;;;2.70;;
17259;SDS011;8746;49.230;9.220;2023-05-07T08:51:30;3.17;;;2.17;;
17259;SDS011;8746;49.230;9.220;2023-05-07T08:53:56;2.60;;;2.50;;
17259;SDS011;8746;49.230;9.220;2023-05-07T08:56:21;3.58;;;2.33;;
17259;SDS011;8746;49.230;9.220;2023-05-07T08:58:47;2.88;;;2.20;;
17259;SDS011;8746;49.230;9.220;2023-05-07T09:01:13;2.92;;;2.65;;
17259;SDS011;8746;49.230;9.220;2023-05-07T09:03:39;2.67;;;2.20;;
17259;SDS011;8746;49.230;9.220;2023-05-07T09:06:05;2.25;;;2.15;;
17259;SDS011;8746;49.230;9.220;2023-05-07T09:08:32;2.80;;;2.10;;
17259;SDS011;8746;49.230;9.220;2023-05-07T09:10:58;2.88;;;2.42;;
17259;SDS011;8746;49.230;9.220;2023-05-07T09:13:23;2.10;;;2.00;;
17259;SDS011;8746;49.230;9.220;2023-05-07T09:15:48;3.20;;;2.20;;
17259;SDS011;8746;49.230;9.220;2023-05-07T09:18:14;2.60;;;2.25;;
17259;SDS011;8746;49.230;9.220;2023-05-07T09:20:40;2.22;;;2.10;;
17259;SDS011;8746;49.230;9.220;2023-05-07T09:23:06;2.22;;;2.03;;
17259;SDS011;8746;49.230;9.220;2023-05-07T09:25:32;3.15;;;2.60;;
17259;SDS011;8746;49.230;9.220;2023-05-07T09:27:59;2.67;;;2.45;;
17259;SDS011;8746;49.230;9.220;2023-05-07T09:30:33;3.75;;;2.13;;
17259;SDS011;8746;49.230;9.220;2023-05-07T09:33:00;2.72;;;2.53;;
17259;SDS011;8746;49.230;9.220;2023-05-07T09:35:26;3.70;;;2.28;;
17259;SDS011;8746;49.230;9.220;2023-05-07T09:37:52;1.90;;;1.80;;
17259;SDS011;8746;49.230;9.220;2023-05-07T09:42:49;2.85;;;2.45;;
17259;SDS011;8746;49.230;9.220;2023-05-07T09:45:15;2.55;;;2.20;;
17259;SDS011;8746;49.230;9.220;2023-05-07T09:47:42;3.80;;;2.20;;
17259;SDS011;8746;49.230;9.220;2023-05-07T09:50:09;2.53;;;2.33;;
17259;SDS011;8746;49.230;9.220;2023-05-07T09:52:36;3.97;;;2.00;;
17259;SDS011;8746;49.230;9.220;2023-05-07T09:55:03;2.20;;;1.88;;
17259;SDS011;8746;49.230;9.220;2023-05-07T09:57:30;2.25;;;2.05;;
17259;SDS011;8746;49.230;9.220;2023-05-07T09:59:57;2.35;;;2.20;;
17259;SDS011;8746;49.230;9.220;2023-05-07T10:02:25;2.97;;;2.33;;
17259;SDS011;8746;49.230;9.220;2023-05-07T10:04:52;2.70;;;2.25;;
17259;SDS011;8746;49.230;9.220;2023-05-07T10:07:19;3.13;;;2.15;;
17259;SDS011;8746;49.230;9.220;2023-05-07T10:09:46;2.13;;;2.00;;
17259;SDS011;8746;49.230;9.220;2023-05-07T10:12:12;4.38;;;2.08;;
17259;SDS011;8746;49.230;9.220;2023-05-07T10:14:38;2.10;;;2.00;;
17259;SDS011;8746;49.230;9.220;2023-05-07T10:17:03;2.75;;;2.13;;
17259;SDS011;8746;49.230;9.220;2023-05-07T10:19:29;2.55;;;2.00;;
17259;SDS011;8746;49.230;9.220;2023-05-07T10:21:56;2.33;;;1.80;;
17259;SDS011;8746;49.230;9.220;2023-05-07T10:24:29;2.33;;;2.13;;
17259;SDS011;8746;49.230;9.220;2023-05-07T10:26:58;2.10;;;2.00;;
17259;SDS011;8746;49.230;9.220;2023-05-07T10:34:45;2.05;;;1.95;;
17259;SDS011;8746;49.230;9.220;2023-05-07T10:37:12;2.20;;;2.00;;
17259;SDS011;8746;49.230;9.220;2023-05-07T10:39:38;2.17;;;1.88;;
17259;SDS011;8746;49.230;9.220;2023-05-07T10:42:08;2.00;;;1.80;;
17259;SDS011;8746;49.230;9.220;2023-05-07T10:44:37;2.10;;;1.90;;
17259;SDS011;8746;49.230;9.220;2023-05-07T10:47:06;2.00;;;1.90;;
17259;SDS011;8746;49.230;9.220;2023-05-07T10:52:12;2.28;;;1.80;;
17259;SDS011;8746;49.230;9.220;2023-05-07T10:54:40;1.70;;;1.60;;
17259;SDS011;8746;49.230;9.220;2023-05-07T10:59:56;1.70;;;1.60;;
17259;SDS011;8746;49.230;9.220;2023-05-07T11:02:22;1.60;;;1.50;;
17259;SDS011;8746;49.230;9.220;2023-05-07T11:05:18;1.40;;;1.30;;
17259;SDS011;8746;49.230;9.220;2023-05-07T11:07:54;1.83;;;1.73;;
17259;SDS011;8746;49.230;9.220;2023-05-07T11:10:20;1.73;;;1.63;;
17259;SDS011;8746;49.230;9.220;2023-05-07T11:12:46;1.60;;;1.30;;
17259;SDS011;8746;49.230;9.220;2023-05-07T11:15:13;3.10;;;1.70;;
17259;SDS011;8746;49.230;9.220;2023-05-07T11:17:55;3.67;;;1.63;;
17259;SDS011;8746;49.230;9.220;2023-05-07T11:20:36;2.47;;;1.52;;
17259;SDS011;8746;49.230;9.220;2023-05-07T11:26:03;2.40;;;1.42;;
17259;SDS011;8746;49.230;9.220;2023-05-07T11:28:30;1.38;;;1.38;;
17259;SDS011;8746;49.230;9.220;2023-05-07T11:31:00;1.67;;;1.48;;
17259;SDS011;8746;49.230;9.220;2023-05-07T11:33:26;1.65;;;1.50;;
17259;SDS011;8746;49.230;9.220;2023-05-07T11:35:55;1.60;;;1.50;;
17259;SDS011;8746;49.230;9.220;2023-05-07T11:38:21;1.50;;;1.40;;
17259;SDS011;8746;49.230;9.220;2023-05-07T11:43:16;1.52;;;1.40;;
17259;SDS011;8746;49.230;9.220;2023-05-07T11:45:41;1.42;;;1.20;;
17259;SDS011;8746;49.230;9.220;2023-05-07T11:48:07;3.20;;;1.63;;
17259;SDS011;8746;49.230;9.220;2023-05-07T11:50:32;3.33;;;1.40;;
17259;SDS011;8746;49.230;9.220;2023-05-07T11:52:57;1.40;;;1.30;;
17259;SDS011;8746;49.230;9.220;2023-05-07T11:55:23;1.30;;;1.20;;
17259;SDS011;8746;49.230;9.220;2023-05-07T11:57:49;1.40;;;1.30;;
17259;SDS011;8746;49.230;9.220;2023-05-07T12:00:15;2.70;;;1.40;;
17259;SDS011;8746;49.230;9.220;2023-05-07T12:02:42;2.38;;;1.25;;
17259;SDS011;8746;49.230;9.220;2023-05-07T12:05:07;1.38;;;1.20;;
17259;SDS011;8746;49.230;9.220;2023-05-07T12:07:33;1.95;;;1.30;;
17259;SDS011;8746;49.230;9.220;2023-05-07T12:09:59;1.30;;;1.20;;
17259;SDS011;8746;49.230;9.220;2023-05-07T12:12:28;1.30;;;1.20;;
17259;SDS011;8746;49.230;9.220;2023-05-07T12:14:54;2.00;;;1.25;;
17259;SDS011;8746;49.230;9.220;2023-05-07T12:17:19;2.10;;;1.40;;
17259;SDS011;8746;49.230;9.220;2023-05-07T12:19:45;1.45;;;1.30;;
17259;SDS011;8746;49.230;9.220;2023-05-07T12:22:11;2.85;;;1.30;;
17259;SDS011;8746;49.230;9.220;2023-05-07T12:24:44;1.55;;;1.15;;
17259;SDS011;8746;49.230;9.220;2023-05-07T12:27:11;1.50;;;1.40;;
17259;SDS011;8746;49.230;9.220;2023-05-07T12:29:36;1.40;;;1.30;;
17259;SDS011;8746;49.230;9.220;2023-05-07T12:32:05;1.40;;;1.30;;
17259;SDS011;8746;49.230;9.220;2023-05-07T12:34:31;2.35;;;1.25;;
17259;SDS011;8746;49.230;9.220;2023-05-07T12:36:56;3.40;;;1.30;;
17259;SDS011;8746;49.230;9.220;2023-05-07T12:39:22;1.38;;;1.10;;
17259;SDS011;8746;49.230;9.220;2023-05-07T12:41:57;1.25;;;1.15;;
17259;SDS011;8746;49.230;9.220;2023-05-07T12:44:24;1.60;;;1.05;;
17259;SDS011;8746;49.230;9.220;2023-05-07T12:46:53;1.50;;;1.40;;
17259;SDS011;8746;49.230;9.220;2023-05-07T12:49:19;1.17;;;1.17;;
17259;SDS011;8746;49.230;9.220;2023-05-07T12:51:46;1.50;;;1.38;;
17259;SDS011;8746;49.230;9.220;2023-05-07T12:54:13;1.33;;;1.23;;
17259;SDS011;8746;49.230;9.220;2023-05-07T12:56:39;1.30;;;1.10;;
17259;SDS011;8746;49.230;9.220;2023-05-07T12:59:04;1.40;;;1.30;;
17259;SDS011;8746;49.230;9.220;2023-05-07T13:01:30;1.23;;;1.20;;
17259;SDS011;8746;49.230;9.220;2023-05-07T13:03:58;1.15;;;1.10;;
17259;SDS011;8746;49.230;9.220;2023-05-07T13:06:25;2.25;;;1.27;;
17259;SDS011;8746;49.230;9.220;2023-05-07T13:08:51;1.30;;;1.20;;
17259;SDS011;8746;49.230;9.220;2023-05-07T13:11:16;1.40;;;1.30;;
17259;SDS011;8746;49.230;9.220;2023-05-07T13:13:42;1.33;;;1.25;;
17259;SDS011;8746;49.230;9.220;2023-05-07T13:16:08;1.13;;;1.02;;
17259;SDS011;8746;49.230;9.220;2023-05-07T13:18:34;2.45;;;1.33;;
17259;SDS011;8746;49.230;9.220;2023-05-07T13:21:02;3.03;;;1.33;;
17259;SDS011;8746;49.230;9.220;2023-05-07T13:23:28;1.23;;;1.13;;
17259;SDS011;8746;49.230;9.220;2023-05-07T13:25:53;2.50;;;1.45;;
17259;SDS011;8746;49.230;9.220;2023-05-07T13:28:19;1.65;;;1.27;;
17259;SDS011;8746;49.230;9.220;2023-05-07T13:30:45;1.95;;;1.40;;
17259;SDS011;8746;49.230;9.220;2023-05-07T13:33:11;1.30;;;1.20;;
17259;SDS011;8746;49.230;9.220;2023-05-07T13:35:36;1.98;;;1.20;;
17259;SDS011;8746;49.230;9.220;2023-05-07T13:38:02;1.40;;;1.40;;
17259;SDS011;8746;49.230;9.220;2023-05-07T13:40:27;1.40;;;1.30;;
17259;SDS011;8746;49.230;9.220;2023-05-07T13:42:52;1.45;;;1.35;;
17259;SDS011;8746;49.230;9.220;2023-05-07T13:45:18;1.50;;;1.40;;
17259;SDS011;8746;49.230;9.220;2023-05-07T13:47:43;2.85;;;1.33;;
17259;SDS011;8746;49.230;9.220;2023-05-07T13:50:09;1.52;;;1.42;;
17259;SDS011;8746;49.230;9.220;2023-05-07T13:52:36;1.60;;;1.50;;
17259;SDS011;8746;49.230;9.220;2023-05-07T13:55:02;1.15;;;1.15;;
17259;SDS011;8746;49.230;9.220;2023-05-07T13:57:28;2.28;;;1.52;;
17259;SDS011;8746;49.230;9.220;2023-05-07T13:59:53;1.98;;;1.50;;
17259;SDS011;8746;49.230;9.220;2023-05-07T14:02:18;1.80;;;1.40;;
17259;SDS011;8746;49.230;9.220;2023-05-07T14:04:44;1.55;;;1.45;;
17259;SDS011;8746;49.230;9.220;2023-05-07T14:07:10;1.52;;;1.42;;
17259;SDS011;8746;49.230;9.220;2023-05-07T14:09:35;1.33;;;1.23;;
17259;SDS011;8746;49.230;9.220;2023-05-07T14:12:00;4.05;;;1.50;;
17259;SDS011;8746;49.230;9.220;2023-05-07T14:14:26;1.60;;;1.50;;
17259;SDS011;8746;49.230;9.220;2023-05-07T14:16:52;1.95;;;1.70;;
17259;SDS011;8746;49.230;9.220;2023-05-07T14:19:17;1.92;;;1.60;;
17259;SDS011;8746;49.230;9.220;2023-05-07T14:21:43;1.65;;;1.55;;
17259;SDS011;8746;49.230;9.220;2023-05-07T14:24:08;2.53;;;1.50;;
17259;SDS011;8746;49.230;9.220;2023-05-07T14:26:34;2.13;;;1.77;;
17259;SDS011;8746;49.230;9.220;2023-05-07T14:28:59;2.97;;;1.58;;
17259;SDS011;8746;49.230;9.220;2023-05-07T14:31:25;1.50;;;1.50;;
17259;SDS011;8746;49.230;9.220;2023-05-07T14:33:50;1.70;;;1.60;;
17259;SDS011;8746;49.230;9.220;2023-05-07T14:36:17;1.95;;;1.73;;
17259;SDS011;8746;49.230;9.220;2023-05-07T14:38:44;2.42;;;2.17;;
17259;SDS011;8746;49.230;9.220;2023-05-07T14:41:10;3.72;;;1.85;;
17259;SDS011;8746;49.230;9.220;2023-05-07T14:43:36;3.60;;;2.03;;
17259;SDS011;8746;49.230;9.220;2023-05-07T14:46:01;3.33;;;1.80;;
17259;SDS011;8746;49.230;9.220;2023-05-07T14:48:27;2.15;;;1.92;;
17259;SDS011;8746;49.230;9.220;2023-05-07T14:50:52;2.28;;;2.00;;
17259;SDS011;8746;49.230;9.220;2023-05-07T14:53:17;2.22;;;2.03;;
17259;SDS011;8746;49.230;9.220;2023-05-07T14:55:42;2.65;;;2.22;;
17259;SDS011;8746;49.230;9.220;2023-05-07T14:58:08;2.55;;;2.35;;
17259;SDS011;8746;49.230;9.220;2023-05-07T15:00:33;3.00;;;2.65;;
17259;SDS011;8746;49.230;9.220;2023-05-07T15:03:03;2.90;;;2.63;;
17259;SDS011;8746;49.230;9.220;2023-05-07T15:05:30;9.25;;;3.15;;
17259;SDS011;8746;49.230;9.220;2023-05-07T15:07:56;3.78;;;2.80;;
17259;SDS011;8746;49.230;9.220;2023-05-07T15:10:21;8.80;;;3.50;;
17259;SDS011;8746;49.230;9.220;2023-05-07T15:12:46;6.90;;;3.70;;